Time;durP1;ratioP1;P1;durP2;ratioP2;P2;SDS_P1;SDS_P2;PMS_P1;PMS_P2;Temp;Humidity;BMP_temperature;BMP_pressure;BME280_temperature;BME280_humidity;BME280_pressure;Samples;Min_cycle;Max_cycle;Signal;HPM_P1;HPM_P2
2021/10/28 00:14:06;;;;;;;5.70;3.42;;;24.40;54.90;;;;;;4158837;28;20488;-60
2021/10/28 00:16:31;;;;;;;9.05;3.53;;;24.40;55.00;;;;;;4160086;28;20044;-60
2021/10/28 00:19:03;;;;;;;6.60;3.30;;;24.40;54.60;;;;;;4153366;28;20063;-60
2021/10/28 00:21:26;;;;;;;6.82;3.05;;;24.50;54.90;;;;;;4160000;28;20037;-60
2021/10/28 00:23:51;;;;;;;8.10;3.63;;;24.50;54.30;;;;;;4158410;28;20110;-60
2021/10/28 00:26:14;;;;;;;7.38;3.20;;;24.60;54.70;;;;;;4155470;28;20030;-60
2021/10/28 00:28:37;;;;;;;4.78;3.05;;;24.60;54.30;;;;;;4159365;28;20126;-59
2021/10/28 00:31:00;;;;;;;11.48;3.10;;;24.60;53.90;;;;;;4157820;28;20037;-59
2021/10/28 00:33:22;;;;;;;4.53;2.80;;;24.60;53.40;;;;;;4163285;28;20045;-58
2021/10/28 00:35:45;;;;;;;7.03;3.00;;;24.70;52.70;;;;;;4156865;28;20055;-59
2021/10/28 00:38:07;;;;;;;5.15;2.80;;;24.70;52.60;;;;;;4158901;28;20579;-59
2021/10/28 00:40:30;;;;;;;5.47;3.08;;;24.80;52.60;;;;;;4157315;28;20071;-61
2021/10/28 00:42:53;;;;;;;8.43;3.30;;;24.80;52.50;;;;;;4154147;28;20053;-64
2021/10/28 00:45:15;;;;;;;5.85;3.45;;;24.80;52.50;;;;;;4149956;28;20117;-61
2021/10/28 00:47:40;;;;;;;4.80;2.80;;;24.80;52.20;;;;;;4162568;28;20162;-68
2021/10/28 00:50:03;;;;;;;5.75;2.75;;;24.90;51.80;;;;;;4153523;28;20045;-59
2021/10/28 00:52:25;;;;;;;;;;;24.90;50.90;;;;;;4157591;28;20539;-57
2021/10/28 00:54:48;;;;;;;6.25;2.72;;;24.90;51.70;;;;;;4156337;28;20043;-58
2021/10/28 00:57:11;;;;;;;5.50;2.40;;;25.00;50.40;;;;;;4157369;28;20132;-54
2021/10/28 00:59:33;;;;;;;5.90;2.58;;;25.00;49.40;;;;;;4155556;28;20033;-59
2021/10/28 01:01:56;;;;;;;5.63;2.47;;;25.00;50.30;;;;;;4160456;28;20504;-58
2021/10/28 01:04:19;;;;;;;4.57;2.50;;;25.10;49.70;;;;;;4165832;28;20502;-59
2021/10/28 01:06:42;;;;;;;5.45;2.90;;;25.10;49.60;;;;;;4152031;28;20316;-57
2021/10/28 01:09:06;;;;;;;5.38;2.60;;;25.10;49.80;;;;;;4155938;28;20036;-58
2021/10/28 01:11:29;;;;;;;10.20;2.65;;;25.10;50.00;;;;;;4163468;28;20348;-58
2021/10/28 01:13:51;;;;;;;5.07;2.90;;;25.20;50.30;;;;;;4151749;28;20042;-58
2021/10/28 01:16:14;;;;;;;5.47;2.45;;;25.20;49.20;;;;;;4155111;28;20372;-60
2021/10/28 01:18:38;;;;;;;5.90;2.50;;;25.30;48.50;;;;;;4158393;28;20609;-58
2021/10/28 01:21:01;;;;;;;3.47;2.20;;;25.30;48.00;;;;;;4137101;28;20521;-58
2021/10/28 01:23:25;;;;;;;7.30;2.40;;;25.30;47.30;;;;;;4153144;28;20890;-58
2021/10/28 01:25:59;;;;;;;4.32;2.20;;;25.30;46.50;;;;;;4156925;28;20079;-59
2021/10/28 01:28:23;;;;;;;5.32;2.38;;;25.30;46.20;;;;;;4162578;28;20044;-59
2021/10/28 01:30:54;;;;;;;4.25;2.22;;;25.30;45.00;;;;;;4168736;28;20175;-59
2021/10/28 01:33:18;;;;;;;4.70;2.28;;;25.30;44.60;;;;;;4160874;28;20044;-59
2021/10/28 01:35:40;;;;;;;3.42;2.08;;;25.40;43.40;;;;;;4161689;28;20032;-59
2021/10/28 01:38:03;;;;;;;5.95;2.63;;;25.40;42.70;;;;;;4154669;28;20048;-59
2021/10/28 01:40:25;;;;;;;5.72;2.17;;;25.40;43.30;;;;;;4153694;28;20041;-57
2021/10/28 01:42:52;;;;;;;3.78;1.98;;;25.40;43.90;;;;;;4161343;28;20068;-58
2021/10/28 01:45:14;;;;;;;3.55;2.00;;;25.40;44.80;;;;;;4153724;28;20045;-60
2021/10/28 01:47:39;;;;;;;4.22;2.10;;;25.40;44.90;;;;;;4145623;28;20057;-59
2021/10/28 01:50:02;;;;;;;3.67;1.90;;;25.50;44.60;;;;;;4156248;28;20102;-59
2021/10/28 01:52:25;;;;;;;5.03;1.80;;;25.50;44.80;;;;;;4164090;28;20048;-58
2021/10/28 01:54:47;;;;;;;8.48;2.72;;;25.50;44.60;;;;;;4157028;28;20033;-60
2021/10/28 01:57:18;;;;;;;3.88;2.22;;;25.60;44.50;;;;;;4162400;28;20048;-57
2021/10/28 01:59:40;;;;;;;5.32;1.92;;;25.60;42.30;;;;;;4163629;28;20080;-64
2021/10/28 02:02:03;;;;;;;4.43;2.08;;;25.70;41.70;;;;;;4159904;28;20041;-59
2021/10/28 02:04:26;;;;;;;5.68;2.10;;;25.70;40.80;;;;;;4170056;28;20057;-60
2021/10/28 02:06:49;;;;;;;4.40;1.97;;;25.70;40.10;;;;;;4166963;28;20041;-58
2021/10/28 02:09:11;;;;;;;9.05;2.45;;;25.80;40.90;;;;;;4173030;28;20025;-58
2021/10/28 02:11:34;;;;;;;4.40;2.05;;;25.80;40.70;;;;;;4165582;28;20045;-59
2021/10/28 02:13:59;;;;;;;3.42;1.60;;;25.90;39.60;;;;;;4164956;28;20124;-58
2021/10/28 02:16:22;;;;;;;3.13;1.58;;;25.90;38.00;;;;;;4163366;28;20037;-58
2021/10/28 02:18:44;;;;;;;4.22;2.25;;;26.00;36.90;;;;;;4167176;28;20041;-58
2021/10/28 02:21:07;;;;;;;3.38;1.65;;;26.10;32.70;;;;;;4163859;28;20061;-58
2021/10/28 02:23:30;;;;;;;3.63;1.83;;;26.20;34.80;;;;;;4163723;28;20059;-58
2021/10/28 02:25:52;;;;;;;2.88;1.83;;;26.30;33.90;;;;;;4157075;28;20052;-58
2021/10/28 02:28:15;;;;;;;2.88;1.70;;;26.30;34.70;;;;;;4156710;28;20408;-58
2021/10/28 02:30:38;;;;;;;3.78;1.83;;;26.30;34.90;;;;;;4156791;28;20037;-58
2021/10/28 02:33:00;;;;;;;5.28;1.90;;;26.40;35.10;;;;;;4160068;28;20978;-58
2021/10/28 02:35:23;;;;;;;6.25;1.95;;;26.40;35.50;;;;;;4155865;28;20037;-58
2021/10/28 02:37:46;;;;;;;3.50;1.55;;;26.40;35.90;;;;;;4158279;28;20064;-59
2021/10/28 02:40:09;;;;;;;3.50;1.50;;;26.40;35.00;;;;;;4159852;28;20052;-58
2021/10/28 02:42:32;;;;;;;2.38;1.60;;;26.40;34.20;;;;;;4152485;28;20037;-58
2021/10/28 02:44:55;;;;;;;3.72;1.85;;;26.50;34.10;;;;;;4150705;28;20052;-58
2021/10/28 02:47:17;;;;;;;3.58;1.65;;;26.50;33.60;;;;;;4160558;28;20037;-58
2021/10/28 02:49:40;;;;;;;2.58;1.50;;;26.60;31.70;;;;;;4158379;28;20045;-58
2021/10/28 02:52:02;;;;;;;2.55;1.55;;;26.60;31.30;;;;;;4142297;28;20043;-58
2021/10/28 02:54:25;;;;;;;5.63;1.42;;;26.70;31.40;;;;;;4163746;28;20044;-58
2021/10/28 02:56:48;;;;;;;2.17;1.27;;;26.80;31.10;;;;;;4162388;28;20037;-58
2021/10/28 02:59:10;;;;;;;1.70;1.17;;;26.80;31.50;;;;;;4151912;28;20751;-58
2021/10/28 03:01:33;;;;;;;3.05;1.70;;;26.90;32.10;;;;;;4167783;28;20152;-58
2021/10/28 03:03:55;;;;;;;2.35;1.33;;;27.00;31.10;;;;;;4152933;28;20202;-58
2021/10/28 03:06:18;;;;;;;1.88;1.27;;;27.00;31.90;;;;;;4140582;28;20085;-58
2021/10/28 03:08:41;;;;;;;3.10;1.45;;;27.10;31.10;;;;;;4155157;28;20033;-59
2021/10/28 03:11:07;;;;;;;4.40;2.00;;;27.10;31.20;;;;;;4160888;28;20029;-59
2021/10/28 03:13:31;;;;;;;2.80;1.45;;;27.20;29.70;;;;;;4162961;28;20075;-58
2021/10/28 03:15:54;;;;;;;4.65;1.80;;;27.30;30.50;;;;;;4164637;28;20056;-59
2021/10/28 03:26:19;;;;;;;2.97;1.30;;;27.50;30.30;;;;;;4160230;28;20120;-59
2021/10/28 03:28:41;;;;;;;2.28;1.20;;;27.50;30.90;;;;;;4153807;28;20033;-59
2021/10/28 03:31:04;;;;;;;4.55;1.58;;;27.50;30.70;;;;;;4157258;28;20026;-58
2021/10/28 03:33:26;;;;;;;4.18;1.67;;;27.60;30.50;;;;;;4152981;28;20052;-60
2021/10/28 03:35:49;;;;;;;6.65;2.38;;;27.60;30.90;;;;;;4161239;28;20041;-60
2021/10/28 03:38:20;;;;;;;4.38;2.70;;;27.60;35.30;;;;;;4154797;28;20047;-59
2021/10/28 03:46:35;;;;;;;5.93;2.60;;;27.80;38.80;;;;;;4150842;28;20714;-59
2021/10/28 03:59:47;;;;;;;4.55;2.00;;;28.20;38.40;;;;;;4160256;28;20079;-59
2021/10/28 04:07:39;;;;;;;7.07;2.42;;;28.40;38.10;;;;;;4165135;28;20037;-59
2021/10/28 04:30:58;;;;;;;4.65;2.60;;;28.70;39.80;;;;;;4165624;28;20036;-58
2021/10/28 04:33:20;;;;;;;3.95;2.53;;;28.70;39.60;;;;;;4154190;28;20045;-58
2021/10/28 04:35:44;;;;;;;5.05;2.63;;;28.70;39.80;;;;;;4159440;28;20061;-58
2021/10/28 04:38:06;;;;;;;;;;;28.70;39.70;;;;;;4154179;28;20440;-58
2021/10/28 04:40:28;;;;;;;5.20;2.53;;;28.70;39.90;;;;;;4165030;28;20394;-58
2021/10/28 04:42:51;;;;;;;5.80;2.97;;;28.80;40.20;;;;;;4147371;28;20757;-59
2021/10/28 04:45:13;;;;;;;6.65;3.08;;;28.80;40.40;;;;;;4161208;28;20028;-58
2021/10/28 04:47:36;;;;;;;4.60;2.80;;;28.80;40.50;;;;;;4150977;28;20873;-58
2021/10/28 04:49:58;;;;;;;5.72;3.20;;;28.80;40.50;;;;;;4147376;28;20041;-58
2021/10/28 04:52:22;;;;;;;6.72;2.92;;;28.80;40.50;;;;;;4163016;28;20046;-59
2021/10/28 04:54:44;;;;;;;;;;;28.80;40.50;;;;;;4162307;28;20463;-59
2021/10/28 04:57:07;;;;;;;5.75;3.00;;;28.80;40.30;;;;;;4160086;28;19909;-58
2021/10/28 04:59:30;;;;;;;5.17;2.90;;;28.80;40.30;;;;;;4161069;28;20041;-59
2021/10/28 05:01:53;;;;;;;5.53;2.95;;;28.80;40.10;;;;;;4145047;28;20058;-59
2021/10/28 05:04:15;;;;;;;7.35;2.90;;;28.80;40.00;;;;;;4154656;28;20045;-59
2021/10/28 05:06:38;;;;;;;4.65;2.50;;;28.80;40.00;;;;;;4164700;28;20029;-59
2021/10/28 05:09:00;;;;;;;4.03;2.55;;;28.80;39.20;;;;;;4162379;28;20476;-58
2021/10/28 05:11:24;;;;;;;5.97;3.00;;;28.90;39.70;;;;;;4161800;28;20207;-58
2021/10/28 05:13:49;;;;;;;4.78;2.42;;;28.90;39.70;;;;;;4156625;28;20227;-58
2021/10/28 05:16:13;;;;;;;5.40;3.28;;;28.90;39.80;;;;;;4152932;28;20036;-59
2021/10/28 05:18:42;;;;;;;8.73;3.15;;;28.90;39.70;;;;;;4157788;28;20421;-58
2021/10/28 05:21:04;;;;;;;6.68;2.85;;;28.90;39.70;;;;;;4163479;28;20033;-58
2021/10/28 05:23:26;;;;;;;6.22;2.90;;;28.90;39.70;;;;;;4160169;28;20456;-58
2021/10/28 05:25:49;;;;;;;4.35;2.78;;;28.90;39.40;;;;;;4163479;28;20036;-59
2021/10/28 05:28:12;;;;;;;5.05;2.85;;;28.80;39.40;;;;;;4155501;28;20413;-59
2021/10/28 05:30:34;;;;;;;6.05;2.50;;;28.90;39.50;;;;;;4170338;28;20065;-59
2021/10/28 05:32:58;;;;;;;4.33;2.60;;;28.90;39.50;;;;;;4167253;28;20088;-59
2021/10/28 05:35:20;;;;;;;6.03;3.00;;;28.90;39.50;;;;;;4168281;28;20765;-59
2021/10/28 05:37:43;;;;;;;5.88;3.08;;;29.00;39.70;;;;;;4159694;28;20037;-58
2021/10/28 05:40:06;;;;;;;5.18;3.03;;;29.00;39.80;;;;;;4165390;28;20036;-58
2021/10/28 05:42:28;;;;;;;3.83;2.65;;;29.20;39.60;;;;;;4164527;28;20899;-58
2021/10/28 05:44:50;;;;;;;4.95;3.17;;;29.20;39.30;;;;;;4168352;28;20048;-58
2021/10/28 05:47:13;;;;;;;6.03;2.78;;;29.30;39.30;;;;;;4159472;28;20037;-58
2021/10/28 05:49:35;;;;;;;5.38;2.88;;;29.50;39.20;;;;;;4162992;28;20037;-58
2021/10/28 05:51:58;;;;;;;4.43;2.70;;;29.60;39.10;;;;;;4158681;28;20037;-58
2021/10/28 05:54:20;;;;;;;4.78;2.60;;;29.60;39.30;;;;;;4152073;28;20037;-58
2021/10/28 05:56:42;;;;;;;4.75;2.80;;;29.60;39.10;;;;;;4167068;28;20072;-58
2021/10/28 05:59:05;;;;;;;7.85;2.75;;;29.70;38.90;;;;;;4162003;28;20065;-58
2021/10/28 06:01:27;;;;;;;3.92;2.63;;;29.70;39.20;;;;;;4164560;28;20624;-58
2021/10/28 06:03:50;;;;;;;4.43;2.80;;;29.70;39.80;;;;;;4168741;28;20158;-58
2021/10/28 06:06:12;;;;;;;4.82;2.42;;;29.70;38.60;;;;;;4161075;28;20034;-58
2021/10/28 06:08:35;;;;;;;4.88;3.05;;;29.70;38.90;;;;;;4169830;28;20857;-58
2021/10/28 06:10:57;;;;;;;4.93;2.58;;;29.60;38.80;;;;;;4156925;28;20037;-58
2021/10/28 06:13:20;;;;;;;5.18;2.53;;;29.60;38.70;;;;;;4170159;28;20691;-58
2021/10/28 06:15:43;;;;;;;6.53;2.70;;;29.60;38.30;;;;;;4159056;28;20034;-59
2021/10/28 06:20:40;;;;;;;5.25;2.95;;;29.60;38.00;;;;;;4155734;28;20168;-58
2021/10/28 06:23:03;;;;;;;4.82;2.42;;;29.60;38.10;;;;;;4153619;28;20444;-57
2021/10/28 06:25:25;;;;;;;4.47;2.30;;;29.60;38.30;;;;;;4153306;28;20145;-58
2021/10/28 06:27:48;;;;;;;4.57;2.22;;;29.60;38.10;;;;;;4172579;28;20108;-58
2021/10/28 06:30:12;;;;;;;5.07;2.63;;;29.50;36.60;;;;;;4160007;28;20547;-59
2021/10/28 06:32:41;;;;;;;4.88;2.60;;;29.50;37.10;;;;;;4174209;28;20145;-59
2021/10/28 06:35:05;;;;;;;6.28;2.60;;;29.50;37.40;;;;;;4155428;28;20342;-58
2021/10/28 06:37:28;;;;;;;5.30;2.70;;;29.50;37.50;;;;;;4167989;28;20056;-59
2021/10/28 06:39:50;;;;;;;4.68;2.97;;;29.50;37.70;;;;;;4168691;28;20099;-58
2021/10/28 06:42:14;;;;;;;4.05;2.50;;;29.50;37.90;;;;;;4162726;28;20420;-58
2021/10/28 06:44:36;;;;;;;;;;;29.40;38.10;;;;;;4156496;28;20081;-58
2021/10/28 06:46:59;;;;;;;3.45;2.35;;;29.40;38.40;;;;;;4165194;28;19916;-58
2021/10/28 06:49:22;;;;;;;4.10;2.40;;;29.40;38.70;;;;;;4169340;28;20112;-58
2021/10/28 06:51:44;;;;;;;9.70;2.72;;;29.40;38.80;;;;;;4165308;28;20320;-58
2021/10/28 06:54:11;;;;;;;4.00;2.42;;;29.40;39.10;;;;;;4163368;28;20481;-58
2021/10/28 06:56:59;;;;;;;6.53;2.42;;;29.40;39.40;;;;;;4159204;28;20048;-58
2021/10/28 07:02:16;;;;;;;4.53;2.50;;;29.30;39.50;;;;;;4163870;28;20048;-58
2021/10/28 07:04:39;;;;;;;4.80;2.90;;;29.30;39.60;;;;;;4148517;28;20100;-59
2021/10/28 07:07:01;;;;;;;5.53;2.70;;;29.30;38.60;;;;;;4155199;28;20829;-58
2021/10/28 07:09:35;;;;;;;5.22;3.33;;;29.20;38.10;;;;;;4163324;28;20044;-59
2021/10/28 07:14:40;;;;;;;3.83;2.83;;;29.20;38.60;;;;;;4161197;28;19913;-58
2021/10/28 07:20:11;;;;;;;4.55;2.95;;;29.10;38.30;;;;;;4159586;28;20041;-58
2021/10/28 07:30:22;;;;;;;7.18;3.25;;;29.10;39.10;;;;;;4163616;28;20041;-59
2021/10/28 07:33:03;;;;;;;6.13;2.95;;;29.00;39.10;;;;;;4160209;28;20118;-58
2021/10/28 08:15:44;;;;;;;5.60;2.90;;;28.80;41.80;;;;;;4155464;28;20045;-59
2021/10/28 08:31:21;;;;;;;3.40;2.28;;;28.70;42.30;;;;;;4138945;28;20064;-59
2021/10/28 08:33:44;;;;;;;4.85;2.47;;;28.70;42.10;;;;;;4150379;28;20040;-58
2021/10/28 08:36:10;;;;;;;4.13;2.65;;;28.70;42.40;;;;;;4156508;28;20083;-58
2021/10/28 08:38:36;;;;;;;3.78;2.47;;;28.80;42.50;;;;;;4163316;28;20437;-58
2021/10/28 08:40:59;;;;;;;4.00;2.40;;;28.70;42.30;;;;;;4160898;28;20041;-59
2021/10/28 08:43:22;;;;;;;5.30;2.53;;;28.70;42.30;;;;;;4161112;28;20516;-58
2021/10/28 08:45:46;;;;;;;4.20;2.58;;;28.70;42.30;;;;;;4158765;28;20030;-59
2021/10/28 08:48:08;;;;;;;;;;;28.70;42.40;;;;;;4162277;28;20232;-58
2021/10/28 08:56:11;;;;;;;5.40;2.60;;;28.70;42.90;;;;;;4166583;28;20612;-59
2021/10/28 09:28:59;;;;;;;3.63;2.58;;;28.50;43.20;;;;;;4158397;28;20136;-59
2021/10/28 09:31:28;;;;;;;4.22;2.65;;;28.50;43.20;;;;;;4156008;28;20090;-58
2021/10/28 09:48:05;;;;;;;4.15;3.00;;;28.50;43.30;;;;;;4171793;28;20037;-60
2021/10/28 09:50:37;;;;;;;9.55;3.13;;;28.40;43.50;;;;;;4158071;28;20297;-57
2021/10/28 09:58:30;;;;;;;4.88;3.00;;;28.40;45.60;;;;;;4153222;28;20104;-61
2021/10/28 10:00:53;;;;;;;4.13;2.53;;;28.40;45.90;;;;;;4162865;28;20674;-60
2021/10/28 10:03:23;;;;;;;5.75;2.60;;;28.40;46.10;;;;;;4159597;28;20041;-61
2021/10/28 10:05:46;;;;;;;6.80;2.72;;;28.30;46.10;;;;;;4149457;28;20393;-60
2021/10/28 10:08:08;;;;;;;8.18;3.28;;;28.30;46.30;;;;;;4158567;28;20719;-64
2021/10/28 10:10:31;;;;;;;6.85;2.53;;;28.30;46.40;;;;;;4160972;28;20098;-60
2021/10/28 10:12:55;;;;;;;3.40;2.30;;;28.30;46.60;;;;;;4159188;28;20159;-60
2021/10/28 10:15:18;;;;;;;5.22;2.78;;;28.30;46.70;;;;;;4158348;28;20369;-59
2021/10/28 10:17:42;;;;;;;4.90;2.33;;;28.30;47.20;;;;;;4161259;28;20484;-58
2021/10/28 10:20:12;;;;;;;6.65;2.50;;;28.30;46.80;;;;;;4156787;28;20064;-59
2021/10/28 10:22:48;;;;;;;4.93;2.50;;;28.30;46.90;;;;;;4159252;28;20564;-58
2021/10/28 11:26:40;;;;;;;4.93;2.70;;;28.20;48.70;;;;;;4160827;28;20055;-59
2021/10/28 11:32:26;;;;;;;4.60;3.00;;;28.20;48.90;;;;;;4155675;28;20037;-58
2021/10/28 12:46:58;;;;;;;6.13;3.17;;;28.00;50.20;;;;;;4113427;28;20047;-59
2021/10/28 12:49:53;;;;;;;9.20;3.72;;;28.00;50.20;;;;;;4148793;28;20044;-60
2021/10/28 12:55:25;;;;;;;10.57;3.33;;;28.00;50.40;;;;;;4139645;28;20045;-61
2021/10/28 13:06:06;;;;;;;5.47;3.08;;;28.00;50.80;;;;;;4158064;28;20586;-58
2021/10/28 13:51:37;;;;;;;5.75;3.17;;;27.80;51.00;;;;;;4162947;28;20037;-57
2021/10/28 13:59:47;;;;;;;8.27;3.17;;;27.80;51.00;;;;;;4156940;28;20457;-58
2021/10/28 14:26:33;;;;;;;4.03;2.85;;;27.80;50.80;;;;;;4172647;28;20049;-57
2021/10/28 14:31:54;;;;;;;4.82;3.00;;;27.70;50.70;;;;;;4160550;28;20041;-58
2021/10/28 15:33:59;;;;;;;4.50;3.22;;;27.40;51.30;;;;;;4103094;28;20058;-57
2021/10/28 15:35:37;;;;;;;5.72;3.22;;;27.40;51.40;;;;;;4148726;28;20076;-57
2021/10/28 15:54:48;;;;;;;4.10;3.10;;;27.30;51.30;;;;;;4162667;28;20099;-56
2021/10/28 15:56:37;;;;;;;3.67;3.03;;;27.30;51.30;;;;;;4143940;28;20071;-59
2021/10/28 16:22:56;;;;;;;5.10;3.10;;;27.20;51.50;;;;;;4165350;28;20543;-58
2021/10/28 16:25:19;;;;;;;5.30;3.33;;;27.10;51.30;;;;;;4160214;28;20099;-60
2021/10/28 16:27:41;;;;;;;4.57;3.30;;;27.10;51.40;;;;;;4158887;28;20041;-58
2021/10/28 16:30:07;;;;;;;6.10;3.15;;;27.10;51.50;;;;;;4164577;28;20600;-57
2021/10/28 16:32:31;;;;;;;4.13;3.10;;;27.10;51.70;;;;;;4156876;28;20037;-58
2021/10/28 16:34:53;;;;;;;4.80;2.97;;;27.10;51.70;;;;;;4164217;28;20069;-57
2021/10/28 16:37:18;;;;;;;5.45;2.92;;;27.00;51.60;;;;;;4159904;28;20155;-58
2021/10/28 16:39:41;;;;;;;4.72;3.15;;;27.00;51.60;;;;;;4165403;28;20067;-57
2021/10/28 16:42:04;;;;;;;4.75;3.25;;;27.00;51.70;;;;;;4147447;28;20117;-58
2021/10/28 16:44:27;;;;;;;4.93;3.53;;;27.00;51.80;;;;;;4164316;28;20106;-56
2021/10/28 16:46:50;;;;;;;5.40;3.30;;;27.00;51.70;;;;;;4157850;28;20033;-57
2021/10/28 16:49:14;;;;;;;4.53;3.25;;;27.00;51.80;;;;;;4164572;28;20762;-58
2021/10/28 16:51:37;;;;;;;4.55;3.13;;;27.00;51.90;;;;;;4157686;28;20063;-58
2021/10/28 16:54:00;;;;;;;5.23;2.90;;;27.00;51.90;;;;;;4151833;28;20042;-59
2021/10/28 16:56:23;;;;;;;4.93;3.20;;;26.90;51.80;;;;;;4167699;28;20043;-58
2021/10/28 16:58:45;;;;;;;4.15;3.40;;;26.90;51.80;;;;;;4169028;28;20143;-57
2021/10/28 17:01:09;;;;;;;4.25;2.90;;;26.90;51.80;;;;;;4160594;28;20504;-58
2021/10/28 17:03:31;;;;;;;4.72;3.38;;;26.90;51.90;;;;;;4168894;28;20110;-58
2021/10/28 17:05:54;;;;;;;4.00;2.88;;;26.90;51.80;;;;;;4158768;28;20041;-57
2021/10/28 17:08:17;;;;;;;4.95;3.63;;;26.90;51.80;;;;;;4161869;28;20032;-57
2021/10/28 17:10:40;;;;;;;4.80;3.20;;;26.90;51.80;;;;;;4159380;28;20044;-58
2021/10/28 17:13:02;;;;;;;4.40;3.20;;;26.80;51.70;;;;;;4160168;28;20041;-58
2021/10/28 17:15:25;;;;;;;5.25;3.33;;;26.80;52.50;;;;;;4156259;28;20037;-57
2021/10/28 17:17:48;;;;;;;4.80;3.70;;;26.80;52.00;;;;;;4162657;28;20044;-57
2021/10/28 17:20:11;;;;;;;5.68;3.17;;;26.80;51.90;;;;;;4165028;28;20289;-57
2021/10/28 17:22:36;;;;;;;8.37;3.40;;;26.80;52.60;;;;;;4156548;28;20148;-59
2021/10/28 17:25:03;;;;;;;8.88;3.38;;;26.80;52.00;;;;;;4172329;28;20302;-58
2021/10/28 17:27:25;;;;;;;4.40;3.60;;;26.70;52.00;;;;;;4155407;28;20037;-58
2021/10/28 17:29:48;;;;;;;7.35;3.83;;;26.70;52.10;;;;;;4158046;28;20159;-57
2021/10/28 17:32:10;;;;;;;5.45;3.75;;;26.70;52.10;;;;;;4163900;28;20040;-58
2021/10/28 17:34:36;;;;;;;3.90;3.30;;;26.70;52.30;;;;;;4165369;28;21474;-60
2021/10/28 17:36:58;;;;;;;7.20;4.15;;;26.70;52.20;;;;;;4161581;28;20044;-59
2021/10/28 17:39:23;;;;;;;10.00;3.55;;;26.70;52.30;;;;;;4150612;28;20456;-59
2021/10/28 17:41:46;;;;;;;4.70;3.13;;;26.70;52.20;;;;;;4165108;28;20037;-59
2021/10/28 17:44:08;;;;;;;4.05;3.45;;;26.60;51.90;;;;;;4163208;28;20059;-58
2021/10/28 17:46:31;;;;;;;5.28;3.60;;;26.60;51.90;;;;;;4165110;28;20086;-58
2021/10/28 17:48:54;;;;;;;4.60;3.35;;;26.60;51.80;;;;;;4143525;28;20041;-59
2021/10/28 17:51:17;;;;;;;4.22;3.58;;;26.60;51.80;;;;;;4165397;28;20106;-59
2021/10/28 17:53:40;;;;;;;4.88;3.45;;;26.60;51.90;;;;;;4158402;28;20041;-55
2021/10/28 17:56:02;;;;;;;4.45;3.20;;;26.50;52.10;;;;;;4156937;28;20040;-55
2021/10/28 17:58:25;;;;;;;3.70;3.03;;;26.50;51.90;;;;;;4156819;28;20044;-53
2021/10/28 18:00:48;;;;;;;4.65;3.38;;;26.50;51.80;;;;;;4151869;28;20053;-57
2021/10/28 18:03:11;;;;;;;6.13;3.90;;;26.50;51.90;;;;;;4158062;28;20111;-56
2021/10/28 18:05:35;;;;;;;5.32;3.40;;;26.50;51.80;;;;;;4160431;28;20077;-56
2021/10/28 18:07:57;;;;;;;6.28;3.80;;;26.50;52.60;;;;;;4154523;28;20041;-57
2021/10/28 18:10:19;;;;;;;6.05;4.03;;;26.50;51.90;;;;;;4153333;28;20052;-58
2021/10/28 18:12:43;;;;;;;4.28;3.70;;;26.40;51.90;;;;;;4156113;28;20049;-58
2021/10/28 18:15:07;;;;;;;4.32;3.30;;;26.40;51.80;;;;;;4154899;28;20084;-55
2021/10/28 18:17:29;;;;;;;;;;;26.40;51.80;;;;;;4157797;28;20069;-55
2021/10/28 18:19:52;;;;;;;6.30;3.90;;;26.40;51.80;;;;;;4159565;28;19924;-56
2021/10/28 18:22:15;;;;;;;5.70;4.18;;;26.40;51.90;;;;;;4160927;28;20090;-55
2021/10/28 18:24:38;;;;;;;4.45;3.55;;;26.40;51.40;;;;;;4171861;28;20053;-56
2021/10/28 18:27:01;;;;;;;6.30;4.50;;;26.40;51.80;;;;;;4166571;28;20033;-56
2021/10/28 18:29:23;;;;;;;5.90;4.00;;;26.30;51.80;;;;;;4157200;28;20052;-55
2021/10/28 18:31:46;;;;;;;4.63;3.80;;;26.30;52.30;;;;;;4162200;28;20037;-56
2021/10/28 18:34:10;;;;;;;6.30;4.30;;;26.30;51.30;;;;;;4163138;28;20623;-54
2021/10/28 18:36:34;;;;;;;4.85;3.55;;;26.30;51.70;;;;;;4173079;28;20676;-55
2021/10/28 18:38:57;;;;;;;5.43;3.30;;;26.30;51.80;;;;;;4162690;28;20045;-53
2021/10/28 18:41:20;;;;;;;4.47;3.40;;;26.20;51.60;;;;;;4162169;28;20060;-55
2021/10/28 18:43:47;;;;;;;5.30;3.75;;;26.30;51.70;;;;;;4167248;28;20536;-55
2021/10/28 18:46:10;;;;;;;4.20;3.60;;;26.20;51.60;;;;;;4163790;28;20041;-56
2021/10/28 18:48:33;;;;;;;4.55;3.63;;;26.20;52.30;;;;;;4159302;28;20041;-55
2021/10/28 18:50:55;;;;;;;5.27;3.40;;;26.10;51.50;;;;;;4169811;28;20183;-54
2021/10/28 18:53:18;;;;;;;5.95;3.80;;;26.20;51.70;;;;;;4157232;28;20049;-58
2021/10/28 18:55:41;;;;;;;4.88;3.65;;;26.10;51.60;;;;;;4170009;28;20739;-57
2021/10/28 18:58:04;;;;;;;5.13;4.05;;;26.10;51.60;;;;;;4161845;28;20392;-56
2021/10/28 19:00:26;;;;;;;5.83;3.67;;;26.10;51.70;;;;;;4168604;28;20190;-57
2021/10/28 19:02:49;;;;;;;5.38;3.80;;;26.10;51.70;;;;;;4160497;28;20339;-55
2021/10/28 19:05:11;;;;;;;4.57;3.75;;;26.10;51.80;;;;;;4167563;28;20033;-55
2021/10/28 19:07:34;;;;;;;5.60;3.67;;;26.00;51.70;;;;;;4161115;28;20131;-57
2021/10/28 19:09:57;;;;;;;5.97;3.70;;;26.00;51.70;;;;;;4162846;28;20568;-56
2021/10/28 19:12:19;;;;;;;5.85;3.75;;;26.00;51.90;;;;;;4170245;28;20455;-56
2021/10/28 19:14:43;;;;;;;4.03;3.33;;;26.00;51.70;;;;;;4164878;28;20029;-55
2021/10/28 19:17:05;;;;;;;4.93;3.63;;;26.00;51.70;;;;;;4154691;28;20458;-57
2021/10/28 19:19:28;;;;;;;5.00;3.75;;;26.00;51.60;;;;;;4158641;28;20037;-57
2021/10/28 19:21:50;;;;;;;5.47;3.67;;;25.90;51.60;;;;;;4150448;28;20136;-55
2021/10/28 19:24:12;;;;;;;5.53;3.70;;;25.90;51.60;;;;;;4165851;28;20045;-59
2021/10/28 19:26:36;;;;;;;5.97;3.50;;;25.90;51.60;;;;;;4167392;28;20044;-52
2021/10/28 19:28:59;;;;;;;4.85;3.50;;;25.90;51.70;;;;;;4168691;28;20040;-53
2021/10/28 19:31:28;;;;;;;7.93;3.72;;;25.90;51.70;;;;;;4160658;28;20493;-55
2021/10/28 19:33:54;;;;;;;4.90;3.60;;;25.80;51.60;;;;;;4162765;28;20060;-57
2021/10/28 19:41:20;;;;;;;5.82;3.45;;;25.80;51.60;;;;;;4155950;28;20045;-50
2021/10/28 19:46:23;;;;;;;6.57;3.83;;;25.80;51.60;;;;;;4157021;28;20083;-55
2021/10/28 19:48:46;;;;;;;5.88;4.03;;;25.70;51.50;;;;;;4156384;28;20041;-55
2021/10/28 19:51:10;;;;;;;6.10;4.15;;;25.80;51.60;;;;;;4164405;28;20037;-51
2021/10/28 19:53:32;;;;;;;;;;;25.70;51.50;;;;;;4156981;28;20037;-58
2021/10/28 19:55:56;;;;;;;6.78;3.47;;;25.70;51.50;;;;;;4168048;28;19912;-57
2021/10/28 19:58:22;;;;;;;4.85;3.45;;;25.70;51.50;;;;;;4150023;28;20053;-55
2021/10/28 20:00:51;;;;;;;5.47;3.85;;;25.70;51.50;;;;;;4158079;28;20721;-57
2021/10/28 20:05:44;;;;;;;5.22;3.90;;;25.70;51.50;;;;;;4153187;28;20047;-56
2021/10/28 20:20:04;;;;;;;9.98;5.70;;;25.60;51.50;;;;;;4165685;28;20398;-53
2021/10/28 20:20:55;;;;;;;13.90;8.57;;;25.60;51.70;;;;;;4159245;28;20123;-54
2021/10/28 20:23:18;;;;;;;9.75;7.85;;;25.60;52.40;;;;;;4154229;28;20131;-57
2021/10/28 20:25:43;;;;;;;11.68;8.82;;;25.60;51.70;;;;;;4159171;28;20740;-55
2021/10/28 20:28:08;;;;;;;9.88;8.13;;;25.60;51.70;;;;;;4149343;28;20116;-55
2021/10/28 20:30:34;;;;;;;11.07;7.55;;;25.50;51.50;;;;;;4147180;28;20045;-54
2021/10/28 20:32:58;;;;;;;12.45;7.60;;;25.50;51.40;;;;;;4156639;28;20037;-53
2021/10/28 20:37:48;;;;;;;8.93;6.72;;;25.50;51.30;;;;;;4164276;28;19909;-52
2021/10/28 20:40:11;;;;;;;11.23;6.95;;;25.50;51.30;;;;;;4168589;28;20893;-53
2021/10/28 20:42:37;;;;;;;9.88;6.32;;;25.40;51.10;;;;;;4165755;28;20051;-56
2021/10/28 20:44:59;;;;;;;8.60;5.60;;;25.40;50.70;;;;;;4166223;28;20851;-56
2021/10/28 20:47:22;;;;;;;7.55;5.10;;;25.40;50.50;;;;;;4164809;28;20148;-57
2021/10/28 20:49:44;;;;;;;7.57;4.95;;;25.40;50.50;;;;;;4142718;28;20037;-55
2021/10/28 20:52:07;;;;;;;5.88;5.20;;;25.40;50.20;;;;;;4157258;28;20132;-56
2021/10/28 20:54:30;;;;;;;6.78;4.97;;;25.40;51.10;;;;;;4161577;28;20115;-56
2021/10/28 20:56:55;;;;;;;6.28;4.78;;;25.40;51.10;;;;;;4155192;28;20029;-57
2021/10/28 20:59:19;;;;;;;6.35;4.68;;;25.30;50.70;;;;;;4162617;28;20035;-56
2021/10/28 21:01:42;;;;;;;10.40;5.22;;;25.30;50.40;;;;;;4162652;28;20677;-53
2021/10/28 21:04:04;;;;;;;6.68;4.57;;;25.30;50.40;;;;;;4158676;28;20049;-55
2021/10/28 21:06:27;;;;;;;6.75;4.32;;;25.30;50.70;;;;;;4165004;28;20091;-55
2021/10/28 21:08:50;;;;;;;6.30;4.70;;;25.30;50.90;;;;;;4161481;28;20724;-58
2021/10/28 21:11:12;;;;;;;6.53;4.22;;;25.30;50.90;;;;;;4158440;28;20426;-56
2021/10/28 21:13:35;;;;;;;7.20;4.70;;;25.30;51.10;;;;;;4165745;28;20037;-52
2021/10/28 21:15:59;;;;;;;5.05;4.18;;;25.30;51.40;;;;;;4141382;28;20465;-53
2021/10/28 21:18:21;;;;;;;7.00;4.63;;;25.30;51.50;;;;;;4162581;28;20045;-58
2021/10/28 21:20:44;;;;;;;5.85;4.25;;;25.20;51.60;;;;;;4162500;28;20695;-58
2021/10/28 21:23:07;;;;;;;6.57;4.23;;;25.20;51.30;;;;;;4151986;28;20527;-58
2021/10/28 21:25:30;;;;;;;6.80;4.43;;;25.20;51.60;;;;;;4141163;28;19921;-57
2021/10/28 21:27:52;;;;;;;8.90;4.03;;;25.20;51.70;;;;;;4165353;28;20099;-57